Time;durP1;ratioP1;P1;durP2;ratioP2;P2;SDS_P1;SDS_P2;PMS_P1;PMS_P2;Temp;Humidity;BMP_temperature;BMP_pressure;BME280_temperature;BME280_humidity;BME280_pressure;Samples;Min_cycle;Max_cycle;Signal;HPM_P1;HPM_P2
2024/04/03 00:00:22;;;;;;;3.85;2.05;;;;;;;10.93;100.00;97401.44;5075329;28;20043;-73
2024/04/03 00:03:15;;;;;;;3.50;1.67;;;;;;;10.97;100.00;97392.25;5093458;28;20518;-73
2024/04/03 00:05:51;;;;;;;7.88;1.88;;;;;;;10.89;100.00;97395.44;5074953;28;20536;-73
2024/04/03 00:08:22;;;;;;;7.28;2.13;;;;;;;10.83;100.00;97396.69;5056826;28;20028;-73
2024/04/03 00:10:54;;;;;;;7.82;1.50;;;;;;;10.84;100.00;97387.72;5058488;28;20469;-73
2024/04/03 00:13:42;;;;;;;5.47;2.13;;;;;;;10.76;100.00;97394.53;5091302;28;20053;-73
2024/04/03 00:16:12;;;;;;;5.30;1.92;;;;;;;10.62;100.00;97391.88;5058905;28;20100;-73
2024/04/03 00:18:53;;;;;;;6.88;1.83;;;;;;;10.59;100.00;97394.75;5093328;28;20028;-73
2024/04/03 00:21:34;;;;;;;5.85;1.92;;;;;;;10.67;100.00;97392.47;5075495;28;20035;-73
2024/04/03 00:24:19;;;;;;;3.92;1.77;;;;;;;10.67;100.00;97385.31;5092616;28;20111;-73
2024/04/03 00:29:53;;;;;;;5.82;1.88;;;;;;;10.59;100.00;97381.38;5092630;28;20363;-73
2024/04/03 00:32:52;;;;;;;4.93;1.77;;;;;;;10.53;100.00;97377.28;5076112;28;20081;-73
2024/04/03 00:38:36;;;;;;;3.05;1.70;;;;;;;10.36;100.00;97380.19;5077633;28;20103;-73
2024/04/03 00:41:22;;;;;;;;;;;;;;;;;;;;;
2024/04/03 00:44:19;;;;;;;1.08;0.90;;;;;;;10.26;100.00;97363.00;5075734;28;20428;-73
2024/04/03 00:46:52;;;;;;;3.15;1.10;;;;;;;10.12;100.00;97350.47;5067425;28;20123;-74
2024/04/03 00:49:36;;;;;;;1.92;0.90;;;;;;;10.16;100.00;97349.38;5073996;28;20032;-72
2024/04/03 00:52:27;;;;;;;2.70;1.23;;;;;;;10.07;100.00;97347.25;5074106;28;20510;-72
2024/04/03 00:55:06;;;;;;;2.05;1.27;;;;;;;9.97;100.00;97358.59;5057818;28;20098;-72
2024/04/03 00:57:44;;;;;;;10.85;1.33;;;;;;;9.90;100.00;97360.81;5073858;28;20034;-73
2024/04/03 01:00:33;;;;;;;;;;;;;;;;;;;;;
2024/04/03 01:03:08;;;;;;;5.18;1.70;;;;;;;9.70;100.00;97364.72;5092081;28;20420;-73
2024/04/03 01:06:27;;;;;;;2.83;1.83;;;;;;;9.39;100.00;97380.00;5091982;28;20528;-72
2024/04/03 01:09:11;;;;;;;;;;;;;;;;;;;;;
2024/04/03 01:12:01;;;;;;;;;;;;;;;;;;;;;
2024/04/03 01:14:45;;;;;;;3.80;2.03;;;;;;;9.21;100.00;97385.50;5075357;28;20022;-74
2024/04/03 01:17:26;;;;;;;3.45;1.60;;;;;;;9.24;100.00;97384.47;5051109;28;20469;-73
2024/04/03 01:23:32;;;;;;;5.38;2.00;;;;;;;9.33;100.00;97385.72;5084937;28;20081;-73
2024/04/03 01:26:14;;;;;;;2.00;1.50;;;;;;;9.42;100.00;97395.84;5057884;28;20035;-73
2024/04/03 01:28:53;;;;;;;3.73;1.80;;;;;;;9.50;100.00;97389.13;5075095;28;20028;-74
2024/04/03 01:31:33;;;;;;;;;;;;;;;;;;;;;
2024/04/03 01:34:28;;;;;;;3.63;2.00;;;;;;;9.71;100.00;97401.16;5074822;28;20420;-73
2024/04/03 01:36:53;;;;;;;3.40;1.60;;;;;;;9.67;100.00;97386.25;5090164;28;20119;-72
2024/04/03 01:39:30;;;;;;;4.05;1.70;;;;;;;9.66;100.00;97394.34;5056390;28;21508;-73
2024/04/03 01:42:17;;;;;;;3.15;1.73;;;;;;;9.60;100.00;97394.72;5053307;28;20029;-74
2024/04/03 01:48:08;;;;;;;7.55;1.55;;;;;;;9.66;100.00;97400.56;5063406;28;20050;-73
2024/04/03 01:50:44;;;;;;;6.63;2.85;;;;;;;9.59;100.00;97390.38;5052737;28;20031;-73
2024/04/03 01:53:38;;;;;;;6.80;3.95;;;;;;;9.53;100.00;97396.06;5073530;28;20031;-73
2024/04/03 01:56:37;;;;;;;12.98;6.35;;;;;;;9.40;100.00;97406.63;5091264;28;20047;-73
2024/04/03 01:59:18;;;;;;;11.48;5.93;;;;;;;9.33;100.00;97410.59;5053742;28;20399;-73
2024/04/03 02:02:05;;;;;;;;;;;;;;;;;;;;;
2024/04/03 02:05:37;;;;;;;6.30;2.80;;;;;;;9.02;100.00;97384.00;5089773;28;20020;-73
2024/04/03 02:08:24;;;;;;;;;;;;;;;;;;;;;
2024/04/03 02:11:05;;;;;;;5.07;1.95;;;;;;;8.77;100.00;97397.88;5074832;28;20023;-74
2024/04/03 02:14:00;;;;;;;7.25;2.20;;;;;;;8.67;100.00;97408.22;5075025;28;20024;-73
2024/04/03 02:16:48;;;;;;;3.60;2.05;;;;;;;8.60;100.00;97390.00;5082446;28;20096;-73
2024/04/03 02:19:32;;;;;;;4.57;2.10;;;;;;;8.65;100.00;97395.91;5068232;28;20046;-73
2024/04/03 02:22:03;;;;;;;10.68;2.30;;;;;;;8.66;100.00;97403.84;5081652;28;20082;-72
2024/04/03 02:24:52;;;;;;;11.98;3.42;;;;;;;8.73;100.00;97401.69;5106167;28;20119;-73
2024/04/03 02:27:30;;;;;;;9.80;2.67;;;;;;;8.78;100.00;97406.75;5073144;28;20060;-72
2024/04/03 02:30:30;;;;;;;;;;;;;;;;;;;;;
2024/04/03 02:33:27;;;;;;;10.02;3.22;;;;;;;8.56;100.00;97397.31;5075578;28;20472;-73
2024/04/03 02:36:20;;;;;;;5.70;3.88;;;;;;;8.47;100.00;97394.28;5074982;28;20826;-73
2024/04/03 02:39:22;;;;;;;12.10;4.85;;;;;;;8.36;100.00;97394.03;5055598;28;20055;-73
2024/04/03 02:42:20;;;;;;;13.45;6.55;;;;;;;8.16;100.00;97401.28;5090586;28;20025;-73
2024/04/03 02:45:01;;;;;;;11.48;6.10;;;;;;;8.15;100.00;97393.41;5090137;28;20479;-68
2024/04/03 02:47:53;;;;;;;9.35;5.10;;;;;;;8.10;100.00;97400.75;5073575;28;20062;-73
2024/04/03 02:50:36;;;;;;;8.82;4.80;;;;;;;8.10;100.00;97396.28;5073086;28;20028;-72
2024/04/03 02:53:24;;;;;;;21.33;5.00;;;;;;;8.03;100.00;97405.56;5083546;28;20031;-72
2024/04/03 02:56:23;;;;;;;7.25;4.97;;;;;;;8.08;100.00;97413.31;5065945;28;20131;-73
2024/04/03 02:59:13;;;;;;;8.43;5.07;;;;;;;8.09;100.00;97415.88;5073320;28;20122;-73
2024/04/03 03:01:49;;;;;;;7.72;5.57;;;;;;;8.17;100.00;97420.81;5058004;28;20367;-73
2024/04/03 03:04:50;;;;;;;15.23;6.45;;;;;;;8.26;100.00;97428.28;5056087;28;20031;-73
2024/04/03 03:07:33;;;;;;;8.75;5.35;;;;;;;8.33;100.00;97432.38;5073425;28;20119;-72
2024/04/03 03:10:21;;;;;;;6.43;3.90;;;;;;;8.43;100.00;97430.06;5090449;28;20483;-73
2024/04/03 03:12:59;;;;;;;9.52;3.20;;;;;;;8.40;100.00;97430.25;5090323;28;20106;-73
2024/04/03 03:16:07;;;;;;;13.25;2.88;;;;;;;8.54;100.00;97441.84;5104713;28;20058;-73
2024/04/03 03:18:38;;;;;;;7.18;2.80;;;;;;;8.47;100.00;97440.47;5074568;28;20024;-73
2024/04/03 03:21:29;;;;;;;14.05;5.28;;;;;;;8.37;100.00;97446.38;5071487;28;20062;-73
2024/04/03 03:24:23;;;;;;;30.98;8.82;;;;;;;8.31;100.00;97454.69;5084263;28;20411;-72
2024/04/03 03:26:59;;;;;;;26.13;8.48;;;;;;;8.30;100.00;97469.00;5075183;28;20093;-73
2024/04/03 03:30:22;;;;;;;26.35;7.80;;;;;;;8.31;100.00;97460.03;5072033;28;20415;-72
2024/04/03 03:33:02;;;;;;;10.18;3.20;;;;;;;8.19;100.00;97467.72;5082808;28;20028;-73
2024/04/03 03:35:53;;;;;;;18.90;3.55;;;;;;;8.09;100.00;97482.47;5090091;28;20024;-72
2024/04/03 03:38:35;;;;;;;39.00;13.32;;;;;;;8.03;100.00;97480.13;5033257;28;20132;-73
2024/04/03 03:44:35;;;;;;;18.25;6.65;;;;;;;7.95;100.00;97484.16;5075264;28;20482;-73
2024/04/03 03:47:06;;;;;;;30.67;10.48;;;;;;;7.92;100.00;97482.50;5083368;28;20039;-72
2024/04/03 03:52:36;;;;;;;17.50;5.28;;;;;;;7.80;100.00;97492.94;5093902;28;20031;-72
2024/04/03 03:55:42;;;;;;;10.05;4.13;;;;;;;7.79;100.00;97488.53;5092244;28;20036;-73
2024/04/03 03:58:37;;;;;;;25.48;5.60;;;;;;;7.72;100.00;97498.63;5076831;28;20054;-73
2024/04/03 04:01:21;;;;;;;;;;;;;;;;;;;;;
2024/04/03 04:04:05;;;;;;;15.10;3.10;;;;;;;7.56;100.00;97511.03;5073690;28;20513;-73
2024/04/03 04:06:46;;;;;;;8.80;3.47;;;;;;;7.57;100.00;97499.44;5093111;28;20062;-73
2024/04/03 04:09:41;;;;;;;13.25;4.97;;;;;;;7.45;100.00;97513.34;5076267;28;20028;-73
2024/04/03 04:12:49;;;;;;;14.80;3.72;;;;;;;7.39;100.00;97518.97;5075097;28;20028;-73
2024/04/03 04:15:44;;;;;;;10.50;3.30;;;;;;;7.28;100.00;97511.56;5082792;28;20020;-73
2024/04/03 04:18:30;;;;;;;12.75;4.05;;;;;;;7.32;100.00;97521.09;5096508;28;20039;-73
2024/04/03 04:21:17;;;;;;;;;;;;;;;;;;;;;
2024/04/03 04:23:50;;;;;;;15.55;6.43;;;;;;;7.40;100.00;97526.03;5076915;28;20058;-74
2024/04/03 04:26:45;;;;;;;41.90;18.10;;;;;;;7.45;100.00;97537.31;5074592;28;20119;-73
2024/04/03 04:29:36;;;;;;;16.08;6.55;;;;;;;7.60;100.00;97549.84;5070449;28;20514;-73
2024/04/03 04:32:29;;;;;;;10.95;3.60;;;;;;;7.66;100.00;97541.56;5074159;28;20462;-73
2024/04/03 04:35:24;;;;;;;20.42;5.93;;;;;;;7.79;100.00;97547.13;5084883;28;20169;-73
2024/04/03 04:38:12;;;;;;;5.47;3.30;;;;;;;8.03;100.00;97545.84;5089436;28;20048;-74
2024/04/03 04:40:49;;;;;;;13.25;3.97;;;;;;;8.05;100.00;97528.00;5071363;28;20047;-75
2024/04/03 04:43:36;;;;;;;;;;;;;;;;;;;;;
2024/04/03 04:49:54;;;;;;;24.85;5.60;;;;;;;8.37;100.00;97539.66;5079518;28;20036;-72
2024/04/03 04:52:41;;;;;;;;;;;;;;;;;;;;;
2024/04/03 04:55:21;;;;;;;9.70;4.60;;;;;;;8.60;100.00;97544.63;5060982;28;20048;-73
2024/04/03 04:57:57;;;;;;;27.15;5.75;;;;;;;8.76;100.00;97539.31;5052750;28;20028;-69
2024/04/03 05:00:54;;;;;;;35.28;5.28;;;;;;;8.81;100.00;97539.91;5046282;28;20027;-71
2024/04/03 05:03:57;;;;;;;28.95;9.48;;;;;;;8.87;100.00;97540.44;5068954;28;20052;-71
2024/04/03 05:06:47;;;;;;;33.58;8.57;;;;;;;9.38;100.00;97546.47;5052093;28;20114;-72
2024/04/03 05:09:55;;;;;;;18.77;6.03;;;;;;;9.99;100.00;97546.44;5068552;28;20053;-72
2024/04/03 05:12:52;;;;;;;;;;;;;;;;;;;;;
2024/04/03 05:15:32;;;;;;;10.25;5.07;;;;;;;10.28;100.00;97538.41;5067951;28;20038;-73
2024/04/03 05:21:41;;;;;;;;;;;;;;;;;;;;;
2024/04/03 05:24:49;;;;;;;;;;;;;;;;;;;;;
2024/04/03 05:27:33;;;;;;;9.55;4.05;;;;;;;11.47;100.00;97530.84;5064146;28;20044;-72
2024/04/03 05:33:23;;;;;;;18.90;5.28;;;;;;;12.21;100.00;97534.69;5068322;28;20462;-71
2024/04/03 05:36:16;;;;;;;71.63;36.75;;;;;;;13.16;100.00;97515.47;5025634;28;20635;-71
2024/04/03 05:38:54;;;;;;;35.58;11.88;;;;;;;14.64;100.00;97512.19;5051055;28;20531;-71
2024/04/03 05:41:43;;;;;;;22.95;5.18;;;;;;;16.04;100.00;97497.00;5068144;28;20036;-71
2024/04/03 05:44:35;;;;;;;20.73;5.72;;;;;;;17.34;83.68;97480.13;5067631;28;20048;-71
2024/04/03 05:47:03;;;;;;;;;;;;;;;17.57;78.71;97477.19;5068500;28;20020;-71
2024/04/03 05:49:45;;;;;;;9.88;5.60;;;;;;;17.48;79.19;97476.13;5049962;28;20014;-73
2024/04/03 05:53:09;;;;;;;12.32;5.35;;;;;;;18.02;77.14;97489.19;5067784;28;20487;-71
2024/04/03 05:56:00;;;;;;;8.68;5.70;;;;;;;18.57;71.55;97490.31;5074231;28;20070;-73
2024/04/03 05:58:52;;;;;;;12.57;4.63;;;;;;;18.70;68.60;97493.53;5088093;28;20093;-72
2024/04/03 06:01:33;;;;;;;;;;;;;;;;;;;;;
2024/04/03 06:04:41;;;;;;;;;;;;;;;;;;;;;
2024/04/03 06:07:14;;;;;;;9.95;5.30;;;;;;;18.68;68.69;97478.44;5088101;28;20040;-72
2024/04/03 06:10:00;;;;;;;19.52;5.60;;;;;;;19.84;61.64;97482.34;5084573;28;20468;-72
2024/04/03 06:12:46;;;;;;;20.67;5.20;;;;;;;20.81;57.27;97480.47;5087140;28;20077;-70
2024/04/03 06:16:01;;;;;;;13.55;5.20;;;;;;;21.41;54.35;97473.16;5069270;28;20040;-71
2024/04/03 06:18:26;;;;;;;18.20;5.85;;;;;;;22.20;51.45;97475.41;5079663;28;20127;-74
2024/04/03 06:21:23;;;;;;;10.85;4.93;;;;;;;22.74;49.01;97469.28;5069413;28;20044;-72
2024/04/03 06:24:03;;;;;;;17.05;7.00;;;;;;;22.52;48.71;97469.97;5087796;28;20476;-72
2024/04/03 06:27:03;;;;;;;10.93;4.03;;;;;;;22.25;49.58;97482.06;5062447;28;20032;-72
2024/04/03 06:29:54;;;;;;;6.13;3.83;;;;;;;22.62;47.33;97476.09;5032721;28;20043;-73
2024/04/03 06:32:36;;;;;;;11.15;3.83;;;;;;;22.29;48.08;97479.84;5064612;28;20040;-71
2024/04/03 06:35:22;;;;;;;9.30;3.77;;;;;;;22.96;46.38;97468.56;5048774;28;20041;-72
2024/04/03 06:38:20;;;;;;;8.18;3.33;;;;;;;22.54;45.79;97478.84;5064830;28;20147;-71
2024/04/03 06:41:02;;;;;;;6.18;3.10;;;;;;;22.31;46.40;97472.34;5050751;28;20058;-71
2024/04/03 06:44:01;;;;;;;6.05;3.15;;;;;;;22.11;46.36;97483.59;5065281;28;20059;-72
2024/04/03 06:46:54;;;;;;;6.03;2.90;;;;;;;22.51;45.18;97485.50;5064936;28;20106;-72
2024/04/03 06:49:31;;;;;;;9.10;2.90;;;;;;;22.33;44.65;97481.22;5048101;28;20222;-72
2024/04/03 06:52:11;;;;;;;18.35;6.03;;;;;;;22.56;45.78;97479.50;5064701;28;20121;-72
2024/04/03 06:54:52;;;;;;;21.95;5.78;;;;;;;22.74;46.26;97485.66;5069282;28;20121;-73
2024/04/03 06:57:36;;;;;;;12.77;4.32;;;;;;;22.84;46.44;97480.03;5068309;28;20055;-73
2024/04/03 07:00:21;;;;;;;19.23;5.10;;;;;;;23.36;45.17;97478.53;5070109;28;20028;-71
2024/04/03 07:03:00;;;;;;;13.27;4.80;;;;;;;24.15;44.26;97477.47;5068937;28;20205;-72
2024/04/03 07:05:50;;;;;;;20.42;4.60;;;;;;;23.03;45.37;97485.13;5070109;28;20438;-73
2024/04/03 07:08:16;;;;;;;7.57;3.60;;;;;;;22.36;47.77;97495.38;5070788;28;20415;-72
2024/04/03 07:11:08;;;;;;;12.52;4.07;;;;;;;23.04;46.60;97487.66;5069428;28;20023;-73
2024/04/03 07:16:48;;;;;;;6.78;3.22;;;;;;;24.12;42.71;97470.50;5064782;28;20079;-72
2024/04/03 07:19:41;;;;;;;16.23;3.63;;;;;;;24.31;42.86;97481.97;5087467;28;20411;-73
2024/04/03 07:22:33;;;;;;;6.93;3.03;;;;;;;24.73;41.82;97468.66;5052384;28;20514;-72
2024/04/03 07:28:11;;;;;;;4.97;2.08;;;;;;;26.01;37.74;97459.97;5064987;28;20046;-74
2024/04/03 07:33:40;;;;;;;8.80;2.60;;;;;;;26.93;35.88;97463.66;5056652;28;20036;-74
2024/04/03 07:36:21;;;;;;;7.88;2.67;;;;;;;27.36;35.14;97447.88;5052404;28;20132;-72
2024/04/03 07:38:52;;;;;;;5.27;2.00;;;;;;;27.48;33.92;97449.03;5078683;28;20158;-69
2024/04/03 07:41:58;;;;;;;4.80;1.70;;;;;;;27.98;32.64;97447.78;5090988;28;20841;-69
2024/04/03 07:44:31;;;;;;;3.58;1.45;;;;;;;27.09;32.46;97424.91;5090599;28;20036;-69
2024/04/03 07:47:33;;;;;;;4.82;1.50;;;;;;;27.36;32.74;97431.38;5073063;28;20525;-69
2024/04/03 07:50:38;;;;;;;;;;;;;;;;;;;;;
2024/04/03 07:53:16;;;;;;;4.35;2.30;;;;;;;27.52;30.96;97424.75;5090432;28;20034;-71
2024/04/03 07:56:17;;;;;;;1.38;0.70;;;;;;;27.56;30.18;97415.91;5073639;28;20575;-71
2024/04/03 08:01:56;;;;;;;2.33;1.25;;;;;;;27.97;29.88;97418.56;5075508;28;20036;-71
2024/04/03 08:04:35;;;;;;;21.65;10.95;;;;;;;28.41;29.92;97413.41;5072682;28;20440;-73
2024/04/03 08:13:29;;;;;;;3.65;1.10;;;;;;;28.35;30.15;97416.16;5084629;28;20052;-72
2024/04/03 08:16:32;;;;;;;4.03;1.13;;;;;;;27.89;29.72;97397.63;5072467;28;20026;-71
2024/04/03 08:19:07;;;;;;;8.80;2.28;;;;;;;27.18;30.20;97401.72;5072441;28;20492;-71
2024/04/03 08:21:52;;;;;;;4.90;1.48;;;;;;;27.18;30.05;97396.22;5090290;28;20573;-71
2024/04/03 08:24:20;;;;;;;2.65;0.85;;;;;;;27.44;30.19;97396.38;5089726;28;20101;-71
2024/04/03 08:27:09;;;;;;;1.23;0.50;;;;;;;27.77;29.16;97392.91;5054717;28;20499;-72
2024/04/03 08:29:37;;;;;;;1.02;0.60;;;;;;;29.72;27.88;97397.78;5071848;28;20506;-73
2024/04/03 08:32:40;;;;;;;3.38;0.90;;;;;;;30.78;26.61;97383.09;5089603;28;20089;-72
2024/04/03 08:35:18;;;;;;;1.17;0.70;;;;;;;31.88;25.81;97392.31;5072840;28;20059;-71
2024/04/03 08:38:22;;;;;;;;;;;;;;;;;;;;;
2024/04/03 08:41:16;;;;;;;4.03;1.10;;;;;;;31.90;25.89;97401.25;5073507;28;20435;-72
2024/04/03 08:43:57;;;;;;;;;;;;;;;;;;;;;
2024/04/03 08:47:02;;;;;;;5.10;0.98;;;;;;;31.21;25.61;97383.09;5072687;28;20030;-72
2024/04/03 08:49:32;;;;;;;2.65;1.20;;;;;;;30.73;25.61;97379.31;5056923;28;20126;-71
2024/04/03 08:52:10;;;;;;;8.07;1.40;;;;;;;31.14;25.69;97383.19;5074279;28;20089;-72
2024/04/03 08:54:42;;;;;;;3.45;0.80;;;;;;;31.31;25.47;97371.53;5070210;28;20146;-72
2024/04/03 08:57:30;;;;;;;1.70;0.88;;;;;;;32.10;24.86;97385.25;5074300;28;20165;-71
2024/04/03 09:00:10;;;;;;;1.63;0.85;;;;;;;32.05;24.71;97383.19;5073458;28;20051;-72
2024/04/03 09:02:43;;;;;;;1.23;0.82;;;;;;;32.07;25.01;97372.72;5091937;28;20161;-72
2024/04/03 09:05:18;;;;;;;1.13;0.75;;;;;;;32.38;24.59;97376.28;5091780;28;20109;-72
2024/04/03 09:07:51;;;;;;;10.50;1.05;;;;;;;31.71;24.94;97369.16;5072876;28;20039;-72
2024/04/03 09:16:32;;;;;;;4.13;1.00;;;;;;;32.65;24.55;97359.03;5075611;28;20031;-85
2024/04/03 09:19:13;;;;;;;5.47;1.52;;;;;;;32.66;24.98;97359.88;5088301;28;20507;-88
2024/04/03 09:21:39;;;;;;;2.47;1.10;;;;;;;32.24;24.43;97350.72;5070574;28;20039;-83
2024/04/03 09:27:08;;;;;;;6.70;1.60;;;;;;;30.77;25.47;97341.84;5088434;28;20050;-84
2024/04/03 09:30:06;;;;;;;1.90;0.80;;;;;;;30.95;25.73;97350.19;5105179;27;20123;-84
2024/04/03 09:32:55;;;;;;;2.15;1.00;;;;;;;32.27;24.46;97335.59;5089321;28;20038;-73
2024/04/03 09:35:42;;;;;;;3.35;0.75;;;;;;;33.55;23.62;97340.09;5025603;28;20053;-72
2024/04/03 09:38:29;;;;;;;1.00;0.65;;;;;;;33.33;23.03;97329.88;5035678;28;20040;-72
2024/04/03 09:41:16;;;;;;;3.10;1.00;;;;;;;33.23;24.10;97333.25;5103777;28;20039;-72
2024/04/03 09:43:58;;;;;;;;;;;;;;;;;;;;;
2024/04/03 09:46:51;;;;;;;3.78;0.60;;;;;;;32.62;23.78;97339.28;5070864;28;20490;-73
2024/04/03 09:49:53;;;;;;;3.08;0.90;;;;;;;32.43;23.89;97332.94;5088203;28;20036;-73
2024/04/03 09:52:57;;;;;;;1.15;1.05;;;;;;;32.38;24.29;97330.06;5054909;28;20063;-72
2024/04/03 09:55:52;;;;;;;2.30;1.08;;;;;;;32.19;24.41;97325.69;5077022;28;20041;-72
2024/04/03 09:58:41;;;;;;;4.35;0.85;;;;;;;31.11;24.87;97333.03;5057293;28;20041;-72
2024/04/03 10:01:36;;;;;;;;;;;;;;;;;;;;;
2024/04/03 10:04:11;;;;;;;3.75;1.05;;;;;;;30.43;25.47;97324.75;5067906;28;20062;-72
2024/04/03 10:07:02;;;;;;;6.32;2.40;;;;;;;30.31;25.73;97328.41;5079003;28;20110;-71
2024/04/03 10:09:35;;;;;;;3.42;1.73;;;;;;;30.44;25.19;97311.78;5080061;28;20127;-72
2024/04/03 10:12:39;;;;;;;2.05;1.15;;;;;;;30.37;25.40;97316.47;5048403;28;20102;-71
2024/04/03 10:15:27;;;;;;;4.65;0.75;;;;;;;30.38;25.75;97315.41;5050582;28;20044;-74
2024/04/03 10:18:32;;;;;;;;;;;;;;;;;;;;;
2024/04/03 10:24:30;;;;;;;1.73;0.90;;;;;;;32.04;24.21;97300.38;5052427;28;20495;-73
2024/04/03 10:27:13;;;;;;;2.45;0.85;;;;;;;31.60;24.13;97293.31;5030972;28;20041;-72
2024/04/03 10:29:43;;;;;;;1.63;0.47;;;;;;;31.17;23.75;97274.06;5052249;28;20442;-72
2024/04/03 10:32:37;;;;;;;1.25;0.65;;;;;;;30.42;24.35;97278.91;5049857;28;20032;-71
2024/04/03 10:35:11;;;;;;;2.03;0.90;;;;;;;31.50;24.14;97288.31;5049340;28;20178;-71
2024/04/03 10:37:58;;;;;;;;;;;;;;;;;;;;;
2024/04/03 10:40:38;;;;;;;1.08;0.70;;;;;;;31.66;23.96;97289.59;5051366;28;20043;-71
2024/04/03 10:43:22;;;;;;;;;;;;;;;;;;;;;
2024/04/03 10:46:10;;;;;;;;;;;;;;;;;;;;;
2024/04/03 10:48:50;;;;;;;2.30;0.98;;;;;;;30.59;25.67;97284.66;5051336;28;20510;-71
2024/04/03 10:51:47;;;;;;;6.05;1.05;;;;;;;32.17;24.08;97278.00;5082914;28;20051;-71
2024/04/03 10:54:25;;;;;;;1.08;0.60;;;;;;;34.29;23.06;97277.16;5052016;28;20086;-71
2024/04/03 10:56:53;;;;;;;1.73;0.77;;;;;;;34.89;21.87;97279.25;5102590;28;20036;-71
2024/04/03 10:59:38;;;;;;;7.35;1.10;;;;;;;34.56;22.65;97263.41;5091139;28;20036;-72
2024/04/03 11:02:37;;;;;;;3.53;0.70;;;;;;;33.06;22.77;97266.59;5073098;28;20059;-72
2024/04/03 11:05:21;;;;;;;2.90;0.98;;;;;;;33.14;22.95;97265.41;5091364;28;20081;-71
2024/04/03 11:07:56;;;;;;;0.55;0.55;;;;;;;33.54;22.94;97262.63;5091787;28;20071;-77
2024/04/03 11:13:55;;;;;;;1.40;0.60;;;;;;;32.66;23.00;97266.53;5079678;28;20090;-78
2024/04/03 11:16:49;;;;;;;;;;;;;;;;;;;;;
2024/04/03 11:19:31;;;;;;;1.52;0.73;;;;;;;31.97;23.75;97256.13;5092507;28;20027;-78
2024/04/03 11:22:30;;;;;;;3.17;0.75;;;;;;;32.27;23.35;97255.28;5057090;28;20082;-78
2024/04/03 11:25:10;;;;;;;1.08;0.60;;;;;;;33.15;22.28;97245.75;5078265;28;20055;-81
2024/04/03 11:28:05;;;;;;;;;;;;;;;;;;;;;
2024/04/03 11:30:36;;;;;;;1.45;0.40;;;;;;;34.21;21.03;97224.75;5070639;28;20036;-78
2024/04/03 11:33:17;;;;;;;1.65;0.80;;;;;;;34.02;21.90;97226.09;5092068;28;20048;-79
2024/04/03 11:36:01;;;;;;;2.00;0.63;;;;;;;33.29;21.99;97215.78;5074114;28;20563;-78
2024/04/03 11:38:46;;;;;;;0.90;0.50;;;;;;;32.35;22.61;97208.69;5074298;28;20180;-77
2024/04/03 11:42:00;;;;;;;1.55;0.90;;;;;;;31.50;23.10;97210.06;5092743;28;20136;-80
2024/04/03 11:47:52;;;;;;;1.63;0.65;;;;;;;32.78;21.66;97190.84;5008063;28;20037;-73
2024/04/03 11:51:04;;;;;;;0.68;0.63;;;;;;;32.81;22.13;97190.34;4977297;28;20038;-72
2024/04/03 11:53:59;;;;;;;;;;;;;;;;;;;;;
2024/04/03 11:56:37;;;;;;;7.85;0.60;;;;;;;33.55;22.35;97176.38;5090524;28;20044;-72
2024/04/03 11:59:12;;;;;;;2.25;0.60;;;;;;;31.22;23.65;97163.63;5072115;28;20043;-72
2024/04/03 12:05:01;;;;;;;2.63;0.57;;;;;;;30.23;25.19;97174.13;5075547;28;20032;-70
2024/04/03 12:08:04;;;;;;;11.50;0.88;;;;;;;30.60;27.16;97190.56;5086493;28;22708;-70
2024/04/03 12:10:43;;;;;;;;;;;;;;;;;;;;;
2024/04/03 12:13:29;;;;;;;3.25;0.65;;;;;;;31.66;25.87;97182.56;5086610;28;20052;-70
2024/04/03 12:16:30;;;;;;;2.00;1.08;;;;;;;33.06;23.15;97172.31;5055856;28;20036;-71
2024/04/03 12:19:26;;;;;;;2.90;1.00;;;;;;;34.58;22.21;97170.31;5074740;28;20403;-71
2024/04/03 12:22:10;;;;;;;2.00;1.05;;;;;;;33.68;22.55;97170.53;5075875;28;20032;-71
2024/04/03 12:24:51;;;;;;;2.33;1.10;;;;;;;35.04;22.54;97180.16;5072625;28;20032;-71
2024/04/03 12:28:00;;;;;;;0.97;0.80;;;;;;;34.10;22.28;97164.59;5072707;28;20466;-71
2024/04/03 12:34:12;;;;;;;3.45;1.00;;;;;;;32.88;21.66;97160.56;5027277;28;20528;-72
2024/04/03 12:37:09;;;;;;;3.88;0.80;;;;;;;32.69;22.73;97166.28;5025915;28;20126;-70
2024/04/03 12:39:52;;;;;;;0.60;0.50;;;;;;;33.84;21.30;97145.81;5089934;28;20110;-69
2024/04/03 12:42:59;;;;;;;2.42;1.05;;;;;;;34.62;21.55;97149.31;5072692;28;20243;-70
2024/04/03 12:46:17;;;;;;;;;;;;;;;;;;;;;
2024/04/03 12:52:53;;;;;;;;;;;;;;;;;;;;;
2024/04/03 12:55:30;;;;;;;1.63;0.60;;;;;;;30.95;22.12;97115.31;5085651;28;20047;-72
2024/04/03 12:58:28;;;;;;;5.25;0.68;;;;;;;30.46;22.54;97119.97;5086296;28;20059;-70
2024/04/03 13:01:17;;;;;;;8.32;1.50;;;;;;;30.39;23.20;97119.22;5070764;28;20099;-71
2024/04/03 13:03:57;;;;;;;;;;;;;;;;;;;;;
2024/04/03 13:06:54;;;;;;;1.65;0.63;;;;;;;30.57;22.84;97105.41;5089263;28;20031;-71
2024/04/03 13:09:38;;;;;;;;;;;;;;;;;;;;;
2024/04/03 13:12:11;;;;;;;2.40;0.63;;;;;;;28.55;24.00;97096.84;5071503;28;20071;-71
2024/04/03 13:15:02;;;;;;;3.22;0.55;;;;;;;27.21;24.57;97090.91;5089023;28;20164;-71
2024/04/03 13:17:38;;;;;;;5.80;2.20;;;;;;;27.34;25.16;97092.81;5088888;28;20031;-71
2024/04/03 13:20:47;;;;;;;3.05;2.17;;;;;;;28.23;23.97;97088.50;5090732;28;20081;-71
2024/04/03 13:23:31;;;;;;;2.40;0.60;;;;;;;28.39;23.83;97092.66;5088596;28;20039;-71
2024/04/03 13:33:22;;;;;;;1.23;0.73;;;;;;;27.77;24.03;97076.72;5077703;28;20054;-72
2024/04/03 13:36:01;;;;;;;0.70;0.40;;;;;;;27.97;24.16;97061.88;5088599;28;20094;-72
2024/04/03 13:38:42;;;;;;;2.22;0.80;;;;;;;27.41;24.32;97067.00;5051824;28;20043;-72
2024/04/03 13:41:28;;;;;;;;;;;;;;;;;;;;;
2024/04/03 13:44:15;;;;;;;0.88;0.52;;;;;;;26.73;24.62;97068.19;5088438;28;20042;-72
2024/04/03 13:47:13;;;;;;;;;;;;;;;;;;;;;
2024/04/03 13:49:44;;;;;;;3.95;2.53;;;;;;;26.17;25.73;97078.56;5088220;28;20032;-70
2024/04/03 13:52:23;;;;;;;2.78;1.05;;;;;;;25.94;25.36;97060.66;5088533;28;20026;-71
2024/04/03 13:58:04;;;;;;;1.00;0.80;;;;;;;25.29;25.67;97054.53;5072937;28;20105;-71
2024/04/03 14:04:06;;;;;;;2.17;1.10;;;;;;;25.02;26.60;97043.56;5073836;28;20055;-72
2024/04/03 14:10:05;;;;;;;;;;;;;;;;;;;;;
2024/04/03 14:12:53;;;;;;;1.30;0.63;;;;;;;24.85;25.99;97050.38;5088115;28;20086;-76
2024/04/03 14:15:40;;;;;;;0.90;0.57;;;;;;;24.83;25.68;97060.66;5070416;28;20042;-76
2024/04/03 14:18:44;;;;;;;;;;;;;;;;;;;;;
2024/04/03 14:21:45;;;;;;;2.08;1.30;;;;;;;24.89;25.60;97052.50;5072841;28;20024;-72
2024/04/03 14:24:42;;;;;;;3.92;1.35;;;;;;;24.17;26.00;97054.44;5087665;28;20031;-72
2024/04/03 14:27:24;;;;;;;2.47;0.35;;;;;;;24.10;25.59;97053.47;5072108;28;20649;-71
2024/04/03 14:30:06;;;;;;;6.45;0.90;;;;;;;24.18;26.29;97056.97;5087658;28;20517;-73
2024/04/03 14:32:46;;;;;;;;;;;;;;;25.09;25.53;97049.94;5069695;28;20047;-71
2024/04/03 14:35:52;;;;;;;1.92;0.77;;;;;;;25.56;25.55;97052.03;5087552;28;19973;-71
2024/04/03 14:39:25;;;;;;;4.82;0.75;;;;;;;26.06;25.84;97053.56;5053843;28;20066;-71
2024/04/03 14:41:54;;;;;;;1.92;0.55;;;;;;;25.88;25.27;97056.84;5008685;28;20068;-71
2024/04/03 14:44:39;;;;;;;3.20;1.00;;;;;;;25.80;25.47;97057.88;5078114;28;20050;-70
2024/04/03 14:47:25;;;;;;;1.20;0.73;;;;;;;25.25;25.42;97061.47;5087353;28;20024;-71
2024/04/03 14:50:16;;;;;;;2.83;0.60;;;;;;;24.53;25.89;97058.00;5087672;28;20030;-70
2024/04/03 14:52:57;;;;;;;1.27;0.82;;;;;;;23.70;26.46;97060.28;5071218;28;20077;-70
2024/04/03 14:55:31;;;;;;;7.43;1.20;;;;;;;23.64;27.06;97050.97;5087713;28;20036;-71
2024/04/03 14:58:20;;;;;;;;;;;;;;;;;;;;;
2024/04/03 15:01:09;;;;;;;1.85;0.93;;;;;;;23.07;26.42;97053.41;5087411;28;20020;-72
2024/04/03 15:04:04;;;;;;;7.25;5.70;;;;;;;22.91;27.01;97053.56;5066122;28;20043;-71
2024/04/03 15:07:03;;;;;;;1.88;1.10;;;;;;;23.03;27.21;97048.53;5087521;28;20148;-71
2024/04/03 15:09:32;;;;;;;2.33;0.98;;;;;;;23.10;26.67;97044.84;5086602;28;20044;-72
2024/04/03 15:12:25;;;;;;;2.28;1.20;;;;;;;22.99;27.18;97050.78;5069615;28;20506;-71
2024/04/03 15:15:33;;;;;;;4.93;2.22;;;;;;;23.02;27.62;97049.53;5102163;28;20055;-70
2024/04/03 15:18:37;;;;;;;5.25;1.60;;;;;;;22.96;27.93;97063.91;5087126;28;20024;-71
2024/04/03 15:21:08;;;;;;;4.50;1.85;;;;;;;22.88;27.82;97064.00;5086982;28;20028;-68
2024/04/03 15:23:57;;;;;;;1.67;1.15;;;;;;;22.94;27.83;97069.59;5069002;28;20047;-69
2024/04/03 15:26:43;;;;;;;2.17;1.52;;;;;;;22.84;27.56;97073.56;5070260;28;20434;-70
2024/04/03 15:29:23;;;;;;;3.72;1.50;;;;;;;22.87;27.70;97076.78;5087422;28;20024;-70
2024/04/03 15:32:19;;;;;;;6.93;1.52;;;;;;;22.71;27.92;97076.91;5087648;28;20406;-68